createdAt,value
2015-11-28T00:00:48.105Z,84.6
2015-11-28T00:01:48.279Z,84.5
2015-11-28T00:02:47.986Z,84.6
2015-11-28T00:03:47.925Z,84.5
2015-11-28T00:04:47.866Z,84.7
2015-11-28T00:05:47.806Z,84.8
2015-11-28T00:06:47.747Z,84.3
2015-11-28T00:07:47.687Z,84.1
2015-11-28T00:08:47.627Z,84.2
2015-11-28T00:09:47.567Z,84.3
2015-11-28T00:10:47.508Z,84.7
2015-11-28T00:11:47.448Z,85
2015-11-28T00:12:47.389Z,84.9
2015-11-28T00:13:47.375Z,84.9
2015-11-28T00:14:47.269Z,85.2
2015-11-28T00:15:47.208Z,85.1
2015-11-28T00:16:47.149Z,84.9
2015-11-28T00:17:46.339Z,85.1
2015-11-28T00:18:47.030Z,85.2
2015-11-28T00:19:46.969Z,85.4
2015-11-28T00:20:46.957Z,85.5
2015-11-28T00:21:46.850Z,85.1
2015-11-28T00:22:46.791Z,84.7
2015-11-28T00:23:46.730Z,85.3
2015-11-28T00:24:46.672Z,85.7
2015-11-28T00:25:46.595Z,85.7
2015-11-28T00:26:46.786Z,86.1
2015-11-28T00:27:46.491Z,85.8
2015-11-28T00:28:46.433Z,85.8
2015-11-28T00:29:46.419Z,85.1
2015-11-28T00:30:46.313Z,85.2
2015-11-28T00:31:46.253Z,84.9
2015-11-28T00:32:46.193Z,84.6
2015-11-28T00:33:46.133Z,85.2
2015-11-28T00:34:46.071Z,84.9
2015-11-28T00:35:46.011Z,84.8
2015-11-28T00:36:45.952Z,85.1
2015-11-28T00:37:45.891Z,84.9
2015-11-28T00:38:45.847Z,84.8
2015-11-28T00:39:45.772Z,84.2
2015-11-28T00:40:45.712Z,84.8
2015-11-28T00:41:45.652Z,85.4
2015-11-28T00:42:45.593Z,85.2
2015-11-28T00:43:45.533Z,85.2
2015-11-28T00:44:45.473Z,85.4
2015-11-28T00:45:45.413Z,85.4
2015-11-28T00:46:45.354Z,85
2015-11-28T00:47:45.310Z,84.5
2015-11-28T00:48:45.266Z,84.4
2015-11-28T00:49:45.191Z,84.5
2015-11-28T00:50:45.146Z,84.1
2015-11-28T00:51:45.071Z,84.2
2015-11-28T00:52:45.011Z,84.2
2015-11-28T00:53:44.951Z,84.4
2015-11-28T00:54:44.891Z,84.2
2015-11-28T00:55:44.832Z,84.1
2015-11-28T00:56:44.772Z,84.9
2015-11-28T00:57:44.712Z,84.6
2015-11-28T00:58:44.652Z,85.3
2015-11-28T00:59:44.593Z,85.2
2015-11-28T01:00:44.533Z,84.5
2015-11-28T01:01:44.488Z,84.5
2015-11-28T01:02:44.414Z,84.1
2015-11-28T01:03:44.369Z,84
2015-11-28T01:04:44.294Z,83.7
2015-11-28T01:05:44.250Z,84
2015-11-28T01:06:44.174Z,83.6
2015-11-28T01:07:44.130Z,83.8
2015-11-28T01:08:44.071Z,83.6
2015-11-28T01:09:44.011Z,83.6
2015-11-28T01:10:43.936Z,83.6
2015-11-28T01:11:43.874Z,83.2
2015-11-28T01:12:43.860Z,82.9
2015-11-28T01:13:43.753Z,83.3
2015-11-28T01:14:43.756Z,83.3
2015-11-28T01:15:43.649Z,83.2
2015-11-28T01:16:43.574Z,82.6
2015-11-28T01:17:43.530Z,82.9
2015-11-28T01:18:43.471Z,82.3
2015-11-28T01:19:43.395Z,82.6
2015-11-28T01:20:43.351Z,82.4
2015-11-28T01:21:43.307Z,82.6
2015-11-28T01:22:46.122Z,81.5
2015-11-28T01:23:43.156Z,82.4
2015-11-28T01:24:43.096Z,82.1
2015-11-28T01:25:43.037Z,82.1
2015-11-28T01:26:43.226Z,82.2
2015-11-28T01:27:42.932Z,82.1
2015-11-28T01:28:42.857Z,82.2
2015-11-28T01:29:42.798Z,81.9
2015-11-28T01:30:42.753Z,82
2015-11-28T01:31:42.678Z,81.8
2015-11-28T01:32:42.634Z,82
2015-11-28T01:33:42.559Z,82.4
2015-11-28T01:34:42.515Z,82.8
2015-11-28T01:35:42.454Z,82.8
2015-11-28T01:36:42.395Z,83.1
2015-11-28T01:37:42.335Z,83
2015-11-28T01:38:42.260Z,83.2
2015-11-28T01:39:42.216Z,83.2
2015-11-28T01:40:42.157Z,82.9
2015-11-28T01:41:42.096Z,83
2015-11-28T01:42:42.021Z,83.7
2015-11-28T01:43:41.977Z,83.8
2015-11-28T01:44:41.902Z,83.8
2015-11-28T01:45:41.842Z,83.5
2015-11-28T01:46:41.782Z,84.3
2015-11-28T01:47:41.722Z,84.2
2015-11-28T01:48:41.663Z,84.2
2015-11-28T01:49:41.604Z,84.4
2015-11-28T01:50:41.543Z,85
2015-11-28T01:51:41.483Z,85.1
2015-11-28T01:52:41.420Z,84.8
2015-11-28T01:53:41.361Z,85.3
2015-11-28T01:54:41.300Z,85.2
2015-11-28T01:55:41.241Z,85.2
2015-11-28T01:56:41.181Z,85.2
2015-11-28T01:57:41.122Z,84.8
2015-11-28T01:58:41.062Z,84.5
2015-11-28T01:59:41.002Z,84.5
2015-11-28T02:00:40.927Z,84.6
2015-11-28T02:01:40.883Z,84.4
2015-11-28T02:02:40.808Z,84.5
2015-11-28T02:03:40.764Z,85.4
2015-11-28T02:04:40.688Z,85.3
2015-11-28T02:05:40.487Z,85.7
2015-11-28T02:06:40.819Z,85.2
2015-11-28T02:07:40.509Z,85.2
2015-11-28T02:08:40.449Z,85.3
2015-11-28T02:09:40.390Z,85.5
2015-11-28T02:10:40.330Z,86.4
2015-11-28T02:11:40.286Z,86.3
2015-11-28T02:12:40.210Z,86.2
2015-11-28T02:13:40.385Z,86.4
2015-11-28T02:14:40.092Z,86.3
2015-11-28T02:15:40.031Z,85.7
2015-11-28T02:16:39.972Z,85.8
2015-11-28T02:17:39.911Z,85.6
2015-11-28T02:18:39.853Z,85.2
2015-11-28T02:19:39.792Z,85.7
2015-11-28T02:20:39.733Z,85.8
2015-11-28T02:21:39.673Z,85.6
2015-11-28T02:22:39.847Z,85.2
2015-11-28T02:23:39.616Z,85.4
2015-11-28T02:24:39.494Z,85.6
2015-11-28T02:25:39.434Z,85.4
2015-11-28T02:26:39.359Z,84.9
2015-11-28T02:27:39.345Z,85.1
2015-11-28T02:28:39.244Z,85.3
2015-11-28T02:29:39.181Z,85.2
2015-11-28T02:30:39.122Z,85.3
2015-11-28T02:31:39.061Z,85.7
2015-11-28T02:32:39.002Z,85.2
2015-11-28T02:33:38.942Z,84.9
2015-11-28T02:34:38.898Z,85
2015-11-28T02:35:38.854Z,85.5
2015-11-28T02:36:38.778Z,85.6
2015-11-28T02:37:38.703Z,85.8
2015-11-28T02:40:22.508Z,85.8
2015-11-28T02:41:15.964Z,85.8
2015-11-28T02:42:15.874Z,86.3
2015-11-28T02:43:15.860Z,86
2015-11-28T02:44:15.755Z,86.3
2015-11-28T02:45:15.725Z,86
2015-11-28T02:46:15.634Z,86.3
2015-11-28T02:47:14.841Z,86.2
2015-11-28T02:48:15.515Z,86.4
2015-11-28T02:49:15.455Z,86.1
2015-11-28T02:50:15.396Z,86.5
2015-11-28T02:51:15.336Z,86.9
2015-11-28T02:52:15.276Z,87
2015-11-28T02:53:15.216Z,86.6
2015-11-28T02:54:15.140Z,86.5
2015-11-28T02:55:14.940Z,86.4
2015-11-28T02:56:15.037Z,86.7
2015-11-28T02:57:14.977Z,86.9
2015-11-28T02:58:14.899Z,87.8
2015-11-28T02:59:15.088Z,88.3
2015-11-28T03:00:14.779Z,87.9
2015-11-28T03:01:14.735Z,87.9
2015-11-28T03:02:14.676Z,88.2
2015-11-28T03:03:14.599Z,87
2015-11-28T03:04:14.540Z,86.9
2015-11-28T03:05:14.340Z,86.9
2015-11-28T03:06:14.437Z,86.6
2015-11-28T03:07:14.408Z,86.5
2015-11-28T03:08:14.301Z,86.6
2015-11-28T03:09:14.320Z,87.1
2015-11-28T03:10:14.182Z,86.8
2015-11-28T03:11:14.137Z,86.2
2015-11-28T03:12:14.062Z,86.6
2015-11-28T03:13:14.002Z,86.5
2015-11-28T03:14:13.943Z,86.4
2015-11-28T03:15:13.883Z,86.4
2015-11-28T03:16:13.823Z,86.5
2015-11-28T03:17:13.779Z,86.8
2015-11-28T03:18:13.766Z,86.8
2015-11-28T03:19:13.660Z,87.1
2015-11-28T03:20:13.585Z,86.8
2015-11-28T03:21:13.556Z,86.6
2015-11-28T03:22:13.699Z,87.1
2015-11-28T03:23:13.405Z,87.7
2015-11-28T03:24:13.345Z,87.5
2015-11-28T03:25:13.301Z,87.2
2015-11-28T03:26:13.226Z,87.2
2015-11-28T03:27:13.166Z,87
2015-11-28T03:28:13.090Z,86.6
2015-11-28T03:29:13.062Z,86.5
2015-11-28T03:30:12.971Z,86.5
2015-11-28T03:31:12.927Z,86.4
2015-11-28T03:32:12.884Z,86.2
2015-11-28T03:33:12.807Z,86.3
2015-11-28T03:34:12.732Z,85.9
2015-11-28T03:35:12.687Z,86.2
2015-11-28T03:36:12.862Z,86.4
2015-11-28T03:37:12.600Z,86.2
2015-11-28T03:38:12.490Z,86.4
2015-11-28T03:39:12.431Z,86.7
2015-11-28T03:40:12.370Z,86.5
2015-11-28T03:41:12.311Z,86.4
2015-11-28T03:42:12.251Z,86.3
2015-11-28T03:43:12.192Z,86
2015-11-28T03:44:12.164Z,85.9
2015-11-28T03:45:12.073Z,85.6
2015-11-28T03:46:12.012Z,85.9
2015-11-28T03:47:11.953Z,85.7
2015-11-28T03:48:11.893Z,85.8
2015-11-28T03:49:11.834Z,85.8
2015-11-28T03:50:11.773Z,85.7
2015-11-28T03:51:11.713Z,86
2015-11-28T03:52:11.900Z,86.2
2015-11-28T03:53:11.808Z,85.7
2015-11-28T03:54:11.498Z,85.7
2015-11-28T03:55:11.423Z,86.6
2015-11-28T03:56:11.347Z,86.9
2015-11-28T03:57:11.259Z,87.1
2015-11-28T03:58:10.459Z,86.9
2015-11-28T03:59:11.145Z,86.8
2015-11-28T04:00:11.078Z,87.4
2015-11-28T04:01:11.014Z,87.2
2015-11-28T04:02:10.949Z,86.4
2015-11-28T04:03:10.919Z,85.9
2015-11-28T04:04:10.811Z,85.7
2015-11-28T04:05:10.999Z,85.6
2015-11-28T04:06:10.688Z,85.5
2015-11-28T04:07:10.643Z,85.5
2015-11-28T04:08:10.597Z,85.1
2015-11-28T04:09:10.505Z,85.2
2015-11-28T04:10:10.445Z,85.2
2015-11-28T04:11:10.385Z,85.7
2015-11-28T04:12:10.325Z,85.9
2015-11-28T04:13:10.264Z,85.6
2015-11-28T04:14:10.205Z,85.9
2015-11-28T04:15:10.160Z,85.7
2015-11-28T04:16:10.082Z,85.9
2015-11-28T04:17:10.037Z,86.2
2015-11-28T04:18:09.961Z,86.4
2015-11-28T04:19:09.901Z,86.3
2015-11-28T04:20:09.826Z,86.3
2015-11-28T04:21:09.767Z,86.5
2015-11-28T04:22:09.722Z,86.5
2015-11-28T04:23:09.648Z,86.5
2015-11-28T04:24:09.603Z,86.7
2015-11-28T04:25:09.528Z,86.8
2015-11-28T04:26:09.467Z,86.8
2015-11-28T04:27:09.409Z,86.8
2015-11-28T04:28:09.348Z,86.8
2015-11-28T04:29:09.289Z,87.1
2015-11-28T04:30:09.213Z,87.1
2015-11-28T04:31:09.185Z,87.2
2015-11-28T04:32:09.110Z,87.3
2015-11-28T04:33:09.050Z,87.2
2015-11-28T04:34:08.974Z,87.2
2015-11-28T04:35:08.930Z,87.4
2015-11-28T04:36:08.854Z,87.7
2015-11-28T04:37:08.814Z,87.5
2015-11-28T04:38:08.739Z,87.3
2015-11-28T04:39:08.664Z,87.1
2015-11-28T04:40:08.604Z,87.3
2015-11-28T04:41:08.544Z,87.1
2015-11-28T04:42:08.532Z,87.6
2015-11-28T04:43:08.425Z,87.2
2015-11-28T04:44:08.366Z,87.3
2015-11-28T04:45:08.305Z,86.9
2015-11-28T04:46:08.262Z,87.1
2015-11-28T04:47:08.202Z,86.9
2015-11-28T04:48:08.127Z,87.1
2015-11-28T04:49:08.066Z,86.9
2015-11-28T04:50:07.991Z,86.9
2015-11-28T04:51:07.947Z,86.9
2015-11-28T04:52:07.887Z,87.1
2015-11-28T04:53:07.824Z,86.9
2015-11-28T04:54:07.749Z,86.8
2015-11-28T04:55:07.690Z,86.9
2015-11-28T04:56:07.661Z,87.1
2015-11-28T04:57:07.585Z,87.1
2015-11-28T04:58:07.760Z,86.8
2015-11-28T04:59:07.451Z,86.7
2015-11-28T05:00:07.438Z,86.7
2015-11-28T05:01:07.363Z,86.7
2015-11-28T05:02:07.272Z,86.5
2015-11-28T05:03:07.446Z,86.4
2015-11-28T05:04:07.152Z,86.6
2015-11-28T05:05:07.077Z,86.7
2015-11-28T05:06:07.032Z,87
2015-11-28T05:07:06.973Z,86.8
2015-11-28T05:08:07.147Z,86.7
2015-11-28T05:09:06.854Z,86.8
2015-11-28T05:10:06.777Z,87
2015-11-28T05:11:07.015Z,87.3
2015-11-28T05:12:06.690Z,86.5
2015-11-28T05:13:06.599Z,86.6
2015-11-28T05:14:06.539Z,86.6
2015-11-28T05:15:06.479Z,86.3
2015-11-28T05:16:06.419Z,86.5
2015-11-28T05:17:06.359Z,86.5
2015-11-28T05:18:06.315Z,86.4
2015-11-28T05:19:06.256Z,86.4
2015-11-28T05:20:06.180Z,86.3
2015-11-28T05:21:06.121Z,86.3
2015-11-28T05:22:06.060Z,86.7
2015-11-28T05:23:06.001Z,86.7
2015-11-28T05:24:05.941Z,86.8
2015-11-28T05:25:05.881Z,86.5
2015-11-28T05:26:05.838Z,86.3
2015-11-28T05:27:05.762Z,86.4
2015-11-28T05:28:04.874Z,86.4
2015-11-28T05:29:05.908Z,86.3
2015-11-28T05:30:05.490Z,86.5
2015-11-28T05:31:05.523Z,86.1
2015-11-28T05:32:05.463Z,86.4
2015-11-28T05:33:05.403Z,86.1
2015-11-28T05:34:05.343Z,86.4
2015-11-28T05:35:05.285Z,86.4
2015-11-28T05:36:05.224Z,86.3
2015-11-28T05:37:05.162Z,86.7
2015-11-28T05:38:05.101Z,86.4
2015-11-28T05:39:05.043Z,86.2
2015-11-28T05:40:04.982Z,86.1
2015-11-28T05:41:04.939Z,86.1
2015-11-28T05:42:04.863Z,86.3
2015-11-28T05:43:04.803Z,86.2
2015-11-28T05:44:04.743Z,86
2015-11-28T05:45:04.684Z,85.7
2015-11-28T05:46:04.624Z,86.1
2015-11-28T05:47:04.580Z,85.9
2015-11-28T05:48:04.520Z,86.2
2015-11-28T05:49:04.476Z,86
2015-11-28T05:50:04.385Z,85.8
2015-11-28T05:51:04.325Z,85.7
2015-11-28T05:52:04.281Z,85.4
2015-11-28T05:53:04.253Z,85.3
2015-11-28T05:54:04.396Z,85.6
2015-11-28T05:55:04.321Z,85.7
2015-11-28T05:56:04.043Z,85.7
2015-11-28T05:57:03.983Z,85.4
2015-11-28T05:58:03.922Z,85.5
2015-11-28T05:59:03.847Z,85.8
2015-11-28T06:00:03.803Z,85.7
2015-11-28T06:01:03.572Z,85.7
2015-11-28T06:02:03.668Z,85.9
2015-11-28T06:03:03.608Z,85.8
2015-11-28T06:04:03.580Z,85.8
2015-11-28T06:05:03.489Z,86.1
2015-11-28T06:06:03.429Z,86.8
2015-11-28T06:07:03.400Z,87.1
2015-11-28T06:08:03.309Z,87.4
2015-11-28T06:09:03.266Z,87.8
2015-11-28T06:10:03.190Z,87.7
2015-11-28T06:11:03.146Z,88.6
2015-11-28T06:12:03.086Z,88.4
2015-11-28T06:13:03.011Z,88.4
2015-11-28T06:14:02.950Z,88.2
2015-11-28T06:15:02.908Z,88.4
2015-11-28T06:16:02.878Z,88.5
2015-11-28T06:17:02.788Z,88.7
2015-11-28T06:18:02.961Z,88.7
2015-11-28T06:19:02.649Z,88.4
2015-11-28T06:20:02.589Z,88.3
2015-11-28T06:21:02.546Z,88.2
2015-11-28T06:22:02.502Z,88.2
2015-11-28T06:23:02.426Z,88.2
2015-11-28T06:24:02.366Z,88.1
2015-11-28T06:25:02.541Z,88.2
2015-11-28T06:26:02.247Z,88.1
2015-11-28T06:27:02.203Z,88
2015-11-28T06:28:02.144Z,87.9
2015-11-28T06:29:02.146Z,88.1
2015-11-28T06:30:02.008Z,88.3
2015-11-28T06:31:01.949Z,88.8
2015-11-28T06:32:01.888Z,89.1
2015-11-28T06:33:01.830Z,89.3
2015-11-28T06:34:01.769Z,89.1
2015-11-28T06:35:01.788Z,89.4
2015-11-28T06:36:01.649Z,89.1
2015-11-28T06:37:01.605Z,88.9
2015-11-28T06:38:01.546Z,88.8
2015-11-28T06:39:01.471Z,88.7
2015-11-28T06:40:01.410Z,88.9
2015-11-28T06:41:01.366Z,89
2015-11-28T06:42:01.307Z,88.6
2015-11-28T06:43:01.246Z,89
2015-11-28T06:44:01.172Z,89
2015-11-28T06:45:01.127Z,88.7
2015-11-28T06:46:01.130Z,88.8
2015-11-28T06:47:01.024Z,88.5
2015-11-28T06:48:00.949Z,88.6
2015-11-28T06:49:00.888Z,88.9
2015-11-28T06:50:00.829Z,88.9
2015-11-28T06:51:00.784Z,88.5
2015-11-28T06:52:00.725Z,89.2
2015-11-28T06:53:00.665Z,89.4
2015-11-28T06:54:00.590Z,89.3
2015-11-28T06:55:00.529Z,88.9
2015-11-28T06:56:00.485Z,88.4
2015-11-28T06:57:00.426Z,88.2
2015-11-28T06:58:00.398Z,88.4
2015-11-28T06:59:00.307Z,88.5
2015-11-28T07:00:00.263Z,88.3
2015-11-28T07:01:00.187Z,88.4
2015-11-28T07:02:00.124Z,88.6
2015-11-28T07:03:00.065Z,88.8
2015-11-28T07:04:00.020Z,88.9
2015-11-28T07:04:59.976Z,89.1
2015-11-28T07:05:59.901Z,89.6
2015-11-28T07:06:59.841Z,89.6
2015-11-28T07:07:59.781Z,89.4
2015-11-28T07:08:59.723Z,89.3
2015-11-28T07:09:59.648Z,89.4
2015-11-28T07:10:59.604Z,89.2
2015-11-28T07:11:59.544Z,89.1
2015-11-28T07:12:59.481Z,89.4
2015-11-28T07:13:59.423Z,89.4
2015-11-28T07:14:59.363Z,89.3
2015-11-28T07:15:59.303Z,89.4
2015-11-28T07:16:59.244Z,89.4
2015-11-28T07:17:59.184Z,89.2
2015-11-28T07:18:59.140Z,89.3
2015-11-28T07:19:58.910Z,89.3
2015-11-28T07:20:59.053Z,89.3
2015-11-28T07:21:58.962Z,89.3
2015-11-28T07:22:58.899Z,89.4
2015-11-28T07:23:58.855Z,89.2
2015-11-28T07:24:59.030Z,89.3
2015-11-28T07:25:58.720Z,88.7
2015-11-28T07:26:58.662Z,89
2015-11-28T07:27:58.618Z,89.2
2015-11-28T07:28:58.559Z,89.5
2015-11-28T07:29:58.499Z,89
2015-11-28T07:30:58.454Z,88.9
2015-11-28T07:31:58.376Z,89.2
2015-11-28T07:32:58.332Z,89.2
2015-11-28T07:33:58.257Z,89
2015-11-28T07:34:58.200Z,89.1
2015-11-28T07:35:58.140Z,89.1
2015-11-28T07:36:58.096Z,89.3
2015-11-28T07:37:58.036Z,89.3
2015-11-28T07:38:57.992Z,89.3
2015-11-28T07:39:57.917Z,89.5
2015-11-28T07:40:57.857Z,89.6
2015-11-28T07:41:57.797Z,89.6
2015-11-28T07:42:57.737Z,89.6
2015-11-28T07:43:57.708Z,89.8
2015-11-28T07:44:57.614Z,90
2015-11-28T07:45:57.570Z,89.9
2015-11-28T07:46:57.511Z,89.9
2015-11-28T07:47:57.466Z,90.1
2015-11-28T07:48:57.392Z,89.8
2015-11-28T07:49:57.331Z,89.6
2015-11-28T07:50:57.272Z,89.6
2015-11-28T07:51:57.212Z,89.7
2015-11-28T07:52:57.152Z,89.8
2015-11-28T07:53:57.092Z,90.1
2015-11-28T07:54:57.033Z,90.2
2015-11-28T07:55:56.973Z,90.8
2015-11-28T07:56:56.916Z,91
2015-11-28T07:57:56.855Z,91
2015-11-28T07:58:56.793Z,91.3
2015-11-28T07:59:56.732Z,91.1
2015-11-28T08:00:56.673Z,90.9
2015-11-28T08:01:56.629Z,90.9
2015-11-28T08:02:56.555Z,91
2015-11-28T08:03:56.495Z,90.9
2015-11-28T08:04:56.452Z,91
2015-11-28T08:05:56.391Z,90.8
2015-11-28T08:06:56.332Z,90.8
2015-11-28T08:07:56.271Z,90.6
2015-11-28T08:08:56.227Z,90.5
2015-11-28T08:09:56.170Z,90.5
2015-11-28T08:10:56.094Z,90.9
2015-11-28T08:11:56.049Z,90.8
2015-11-28T08:12:55.971Z,90.9
2015-11-28T08:13:55.912Z,90.8
2015-11-28T08:14:55.853Z,90.8
2015-11-28T08:15:55.810Z,91
2015-11-28T08:16:55.749Z,90.9
2015-11-28T08:17:55.691Z,91.4
2015-11-28T08:18:55.631Z,91.6
2015-11-28T08:19:55.602Z,91.3
2015-11-28T08:20:55.508Z,91.5
2015-11-28T08:21:55.449Z,91.6
2015-11-28T08:22:55.390Z,91.6
2015-11-28T08:23:55.331Z,91.8
2015-11-28T08:24:55.271Z,91.5
2015-11-28T08:25:55.289Z,91.8
2015-11-28T08:26:55.152Z,91.9
2015-11-28T08:27:55.108Z,92.6
2015-11-28T08:28:55.033Z,92.8
2015-11-28T08:29:55.004Z,93.4
2015-11-28T08:30:54.926Z,93.5
2015-11-28T08:31:54.865Z,93.7
2015-11-28T08:32:54.806Z,93.4
2015-11-28T08:33:54.748Z,93.7
2015-11-28T08:34:54.674Z,94
2015-11-28T08:35:54.629Z,94
2015-11-28T08:36:54.584Z,94.1
2015-11-28T08:37:54.506Z,94.2
2015-11-28T08:38:54.463Z,94.6
2015-11-28T08:39:54.387Z,95.1
2015-11-28T08:40:54.331Z,95.1
2015-11-28T08:41:54.256Z,94.8
2015-11-28T08:42:54.195Z,94.6
2015-11-28T08:43:54.151Z,94.8
2015-11-28T08:44:54.089Z,96
2015-11-28T08:45:54.028Z,96.2
2015-11-28T08:46:53.953Z,96.3
2015-11-28T08:47:53.911Z,96.7
2015-11-28T08:48:53.836Z,97
2015-11-28T08:49:53.792Z,97.5
2015-11-28T08:50:53.732Z,97.9
2015-11-28T08:51:52.919Z,98.4
2015-11-28T08:52:53.610Z,98.8
2015-11-28T08:53:53.582Z,99.1
2015-11-28T08:54:53.506Z,98.8
2015-11-28T08:55:53.447Z,98.8
2015-11-28T08:56:53.358Z,98.6
2015-11-28T08:57:53.314Z,99.4
2015-11-28T08:58:53.254Z,99.2
2015-11-28T08:59:53.176Z,98.7
2015-11-28T09:00:53.131Z,99.1
2015-11-28T09:01:53.071Z,99.3
2015-11-28T09:02:53.028Z,99.9
2015-11-28T09:03:52.970Z,99.9
2015-11-28T09:04:52.941Z,99.9
2015-11-28T09:05:52.913Z,99.9
2015-11-28T09:06:52.788Z,99.9
2015-11-28T09:07:52.712Z,99.9
2015-11-28T09:08:52.653Z,99.9
2015-11-28T09:09:52.609Z,99.7
2015-11-28T09:10:52.551Z,99.6
2015-11-28T09:11:52.492Z,99.5
2015-11-28T09:12:52.448Z,99
2015-11-28T09:13:52.370Z,98.8
2015-11-28T09:14:52.325Z,98.8
2015-11-28T09:15:52.250Z,98.7
2015-11-28T09:16:52.190Z,98.5
2015-11-28T09:17:52.132Z,98.4
2015-11-28T09:18:52.072Z,98.4
2015-11-28T09:19:52.013Z,98.6
2015-11-28T09:20:51.950Z,99
2015-11-28T09:21:51.891Z,98.9
2015-11-28T09:22:51.831Z,98.7
2015-11-28T09:23:51.774Z,98.2
2015-11-28T09:24:51.730Z,98.5
2015-11-28T09:25:51.670Z,98.8
2015-11-28T09:26:51.607Z,98.9
2015-11-28T09:27:51.548Z,99
2015-11-28T09:28:51.488Z,98.9
2015-11-28T09:29:51.446Z,98.3
2015-11-28T09:30:51.371Z,98.4
2015-11-28T09:31:51.326Z,98.8
2015-11-28T09:32:51.248Z,98.5
2015-11-28T09:33:51.204Z,98.5
2015-11-28T09:34:51.379Z,99.1
2015-11-28T09:35:51.085Z,99.2
2015-11-28T09:36:51.025Z,99.2
2015-11-28T09:37:50.967Z,99.3
2015-11-28T09:38:50.908Z,99.7
2015-11-28T09:39:50.848Z,99.9
2015-11-28T09:40:50.786Z,99.9
2015-11-28T09:41:50.757Z,99.9
2015-11-28T09:42:50.682Z,99.9
2015-11-28T09:43:50.606Z,99.9
2015-11-28T09:44:50.546Z,99.9
2015-11-28T09:45:50.489Z,99.9
2015-11-28T09:46:50.430Z,99.9
2015-11-28T09:47:50.417Z,99.9
2015-11-28T09:48:50.325Z,99.9
2015-11-28T09:49:50.250Z,99.9
2015-11-28T09:50:50.188Z,99.9
2015-11-28T09:51:50.127Z,99.9
2015-11-28T09:52:50.099Z,99.9
2015-11-28T09:53:50.027Z,99.9
2015-11-28T09:54:50.014Z,99.5
2015-11-28T09:55:49.938Z,99.2
2015-11-28T09:56:49.847Z,99
2015-11-28T09:57:49.785Z,98.9
2015-11-28T09:58:49.724Z,98.8
2015-11-28T09:59:49.665Z,99.3
2015-11-28T10:00:49.639Z,98.8
2015-11-28T10:01:49.548Z,99.3
2015-11-28T10:02:49.485Z,99.6
2015-11-28T10:03:49.426Z,99.9
2015-11-28T10:04:49.381Z,99.6
2015-11-28T10:05:49.306Z,99.2
2015-11-28T10:06:49.262Z,99.6
2015-11-28T10:07:49.202Z,99.6
2015-11-28T10:08:49.144Z,99.8
2015-11-28T10:09:49.100Z,99.5
2015-11-28T10:10:49.009Z,99.9
2015-11-28T10:11:48.950Z,99.9
2015-11-28T10:12:48.903Z,99.9
2015-11-28T10:13:48.828Z,99.7
2015-11-28T10:14:48.767Z,99.9
2015-11-28T10:15:48.709Z,99.7
2015-11-28T10:16:48.649Z,99.9
2015-11-28T10:17:48.605Z,99.9
2015-11-28T10:18:48.529Z,99.9
2015-11-28T10:19:48.485Z,99.9
2015-11-28T10:20:48.410Z,99.9
2015-11-28T10:21:48.351Z,99.9
2015-11-28T10:22:48.290Z,99.9
2015-11-28T10:23:48.231Z,99.9
2015-11-28T10:24:48.171Z,99.9
2015-11-28T10:25:48.111Z,99.9
2015-11-28T10:26:48.098Z,99.9
2015-11-28T10:27:47.992Z,99.9
2015-11-28T10:28:47.978Z,99.9
2015-11-28T10:29:47.888Z,99.9
2015-11-28T10:30:47.813Z,99.9
2015-11-28T10:31:47.754Z,99.9
2015-11-28T10:32:47.709Z,99.9
2015-11-28T10:33:47.696Z,99.9
2015-11-28T10:34:47.574Z,99.9
2015-11-28T10:35:47.529Z,99.9
2015-11-28T10:36:47.454Z,99.9
2015-11-28T10:37:47.409Z,99.9
2015-11-28T10:38:47.347Z,99.9
2015-11-28T10:39:47.288Z,99.9
2015-11-28T10:40:47.228Z,99.9
2015-11-28T10:41:47.168Z,99.9
2015-11-28T10:42:47.109Z,99.9
2015-11-28T10:43:47.049Z,99.9
2015-11-28T10:44:46.990Z,99.9
2015-11-28T10:45:46.930Z,99.9
2015-11-28T10:46:46.871Z,99.9
2015-11-28T10:47:46.827Z,99.9
2015-11-28T10:48:46.018Z,99.9
2015-11-28T10:49:46.691Z,99.9
2015-11-28T10:50:46.629Z,99.9
2015-11-28T10:51:46.585Z,99.9
2015-11-28T10:52:46.510Z,99.9
2015-11-28T10:53:46.466Z,99.9
2015-11-28T10:54:46.391Z,99.9
2015-11-28T10:55:46.349Z,99.9
2015-11-28T10:56:46.289Z,99.9
2015-11-28T10:57:46.229Z,99.9
2015-11-28T10:58:46.170Z,99.9
2015-11-28T10:59:46.107Z,99.9
2015-11-28T11:00:46.063Z,99.9
2015-11-28T11:01:45.987Z,99.9
2015-11-28T11:02:45.931Z,99.9
2015-11-28T11:03:45.871Z,99.9
2015-11-28T11:04:45.826Z,99.9
2015-11-28T11:05:45.779Z,99.9
2015-11-28T11:06:45.688Z,99.9
2015-11-28T11:07:45.629Z,99.9
2015-11-28T11:08:45.585Z,99.9
2015-11-28T11:09:45.512Z,99.9
2015-11-28T11:10:45.467Z,99.9
2015-11-28T11:11:45.408Z,99.9
2015-11-28T11:12:45.347Z,99.9
2015-11-28T11:13:45.288Z,99.9
2015-11-28T11:14:45.225Z,99.9
2015-11-28T11:15:45.166Z,99.9
2015-11-28T11:16:45.106Z,99.9
2015-11-28T11:17:45.049Z,99.9
2015-11-28T11:18:45.005Z,99.9
2015-11-28T11:19:44.944Z,99.9
2015-11-28T11:20:44.885Z,99.9
2015-11-28T11:21:44.822Z,99.9
2015-11-28T11:22:44.105Z,99.9
2015-11-28T11:23:45.049Z,99.9
2015-11-28T11:24:46.562Z,99.9
2015-11-28T11:25:45.179Z,99.9
2015-11-28T11:26:45.010Z,99.9
2015-11-28T11:27:44.560Z,99.9
2015-11-28T11:28:44.547Z,99.9
2015-11-28T11:29:44.518Z,99.9
2015-11-28T11:30:44.393Z,99.9
2015-11-28T11:31:44.349Z,99.9
2015-11-28T11:32:44.384Z,99.9
2015-11-28T11:33:44.387Z,99.9
2015-11-28T11:34:44.310Z,99.9
2015-11-28T11:35:44.438Z,99.9
2015-11-28T11:36:44.082Z,99.9
2015-11-28T11:37:43.914Z,99.9
2015-11-28T11:38:43.856Z,99.9
2015-11-28T11:39:43.811Z,99.9
2015-11-28T11:40:44.767Z,99.9
2015-11-28T11:41:43.673Z,99.9
2015-11-28T11:42:43.629Z,99.9
2015-11-28T11:43:43.553Z,99.9
2015-11-28T11:44:43.510Z,99.9
2015-11-28T11:45:43.638Z,99.9
2015-11-28T11:46:43.377Z,99.9
2015-11-28T11:47:43.317Z,99.9
2015-11-28T11:48:43.257Z,99.9
2015-11-28T11:49:43.194Z,99.9
2015-11-28T11:50:43.216Z,99.9
2015-11-28T11:51:43.091Z,99.9
2015-11-28T11:52:43.062Z,99.9
2015-11-28T11:53:42.971Z,99.9
2015-11-28T11:54:42.927Z,99.9
2015-11-28T11:55:42.853Z,99.9
2015-11-28T11:56:42.793Z,99.9
2015-11-28T11:57:42.734Z,99.9
2015-11-28T11:58:42.690Z,99.9
2015-11-28T11:59:42.627Z,99.9
2015-11-28T12:00:42.568Z,99.9
2015-11-28T12:01:42.539Z,99.9
2015-11-28T12:02:42.479Z,99.9
2015-11-28T12:03:42.406Z,99.9
2015-11-28T12:04:42.331Z,99.9
2015-11-28T12:05:42.271Z,99.9
2015-11-28T12:06:42.227Z,99.9
2015-11-28T12:07:42.164Z,99.9
2015-11-28T12:08:42.120Z,99.9
2015-11-28T12:09:42.061Z,99.9
2015-11-28T12:10:42.017Z,99.9
2015-11-28T12:11:41.958Z,99.9
2015-11-28T12:12:41.884Z,99.9
2015-11-28T12:13:41.855Z,99.9
2015-11-28T12:14:41.811Z,99.9
2015-11-28T12:15:41.702Z,99.9
2015-11-28T12:16:41.657Z,99.9
2015-11-28T12:17:41.613Z,99.9
2015-11-28T12:18:41.570Z,99.9
2015-11-28T12:19:41.528Z,99.9
2015-11-28T12:20:41.421Z,99.9
2015-11-28T12:21:41.408Z,99.9
2015-11-28T12:22:41.314Z,99.9
2015-11-28T12:23:41.239Z,99.9
2015-11-28T12:24:41.195Z,99.9
2015-11-28T12:25:41.138Z,99.9
2015-11-28T12:26:41.078Z,99.9
2015-11-28T12:27:41.018Z,99.9
2015-11-28T12:28:40.974Z,99.9
2015-11-28T12:29:40.912Z,99.9
2015-11-28T12:30:40.852Z,99.9
2015-11-28T12:31:40.793Z,99.9
2015-11-28T12:32:40.779Z,99.9
2015-11-28T12:33:40.707Z,99.9
2015-11-28T12:34:40.615Z,99.9
2015-11-28T12:35:40.571Z,99.9
2015-11-28T12:36:40.524Z,99.9
2015-11-28T12:37:40.448Z,99.9
2015-11-28T12:38:40.389Z,99.9
2015-11-28T12:39:40.329Z,99.9
2015-11-28T12:40:40.287Z,99.9
2015-11-28T12:41:40.228Z,99.9
2015-11-28T12:42:40.168Z,99.9
2015-11-28T12:43:40.123Z,99.9
2015-11-28T12:44:40.061Z,99.9
2015-11-28T12:45:40.001Z,99.9
2015-11-28T12:46:40.036Z,99.9
2015-11-28T12:47:39.947Z,99.9
2015-11-28T12:48:39.841Z,99.9
2015-11-28T12:49:39.780Z,99.9
2015-11-28T12:50:39.733Z,99.9
2015-11-28T12:51:39.658Z,99.9
2015-11-28T12:52:39.614Z,99.9
2015-11-28T12:53:39.555Z,99.9
2015-11-28T12:54:39.494Z,99.9
2015-11-28T12:55:39.669Z,99.9
2015-11-28T12:56:39.377Z,99.9
2015-11-28T12:57:39.316Z,99.9
2015-11-28T12:58:39.247Z,99.9
2015-11-28T12:59:39.190Z,99.9
2015-11-28T13:00:39.137Z,99.9
2015-11-28T13:01:39.066Z,99.9
2015-11-28T13:02:38.997Z,99.9
2015-11-28T13:03:38.931Z,99.9
2015-11-28T13:04:38.869Z,99.9
2015-11-28T13:05:38.868Z,99.6
2015-11-28T13:06:38.758Z,99.2
2015-11-28T13:07:38.695Z,98.8
2015-11-28T13:08:38.650Z,97.5
2015-11-28T13:09:38.587Z,95.8
2015-11-28T13:10:38.528Z,95.5
2015-11-28T13:11:38.482Z,94.7
2015-11-28T13:12:38.453Z,95.9
2015-11-28T13:13:38.360Z,95.3
2015-11-28T13:14:38.379Z,93.1
2015-11-28T13:15:38.257Z,93.3
2015-11-28T13:16:38.195Z,92
2015-11-28T13:17:38.151Z,90.9
2015-11-28T13:18:38.091Z,91.3
2015-11-28T13:19:38.031Z,91.8
2015-11-28T13:20:38.003Z,91.1
2015-11-28T13:21:37.912Z,91.3
2015-11-28T13:22:37.852Z,91.2